createdAt,value
2018-09-25T00:00:38.715Z,73.90
2018-09-25T00:03:11.667Z,73.60
2018-09-25T00:05:44.617Z,73.70
2018-09-25T00:08:17.476Z,73.70
2018-09-25T00:10:50.527Z,73.60
2018-09-25T00:13:23.579Z,73.60
2018-09-25T00:15:56.560Z,73.50
2018-09-25T00:18:29.459Z,73.40
2018-09-25T00:21:02.410Z,73.30
2018-09-25T00:23:35.336Z,73.20
2018-09-25T00:26:08.294Z,73.10
2018-09-25T00:28:41.475Z,73.00
2018-09-25T00:31:14.388Z,73.10
2018-09-25T00:33:47.356Z,73.00
2018-09-25T00:36:20.284Z,73.30
2018-09-25T00:38:53.237Z,73.40
2018-09-25T00:41:26.147Z,73.70
2018-09-25T00:43:59.167Z,73.90
2018-09-25T00:46:32.185Z,73.80
2018-09-25T00:49:05.127Z,73.70
2018-09-25T00:51:38.284Z,73.70
2018-09-25T00:54:11.535Z,73.80
2018-09-25T00:56:44.833Z,74.10
2018-09-25T00:59:17.807Z,74.50
2018-09-25T01:01:50.781Z,74.90
2018-09-25T01:04:23.996Z,75.60
2018-09-25T01:06:56.936Z,76.00
2018-09-25T01:09:29.882Z,76.40
2018-09-25T01:12:02.842Z,76.80
2018-09-25T01:14:35.745Z,76.90
2018-09-25T01:17:08.718Z,77.00
2018-09-25T01:19:41.626Z,77.20
2018-09-25T01:22:14.572Z,77.20
2018-09-25T01:24:47.523Z,77.30
2018-09-25T01:27:20.722Z,77.30
2018-09-25T01:29:54.170Z,77.30
2018-09-25T01:32:27.132Z,77.30
2018-09-25T01:35:00.303Z,77.20
2018-09-25T01:37:33.315Z,77.10
2018-09-25T01:40:06.235Z,77.00
2018-09-25T01:42:39.100Z,76.80
2018-09-25T01:45:12.201Z,76.50
2018-09-25T01:47:45.177Z,76.20
2018-09-25T01:55:14.960Z,76.00
2018-09-25T01:57:47.912Z,75.60
2018-09-25T02:00:20.982Z,75.50
2018-09-25T02:02:53.877Z,75.50
2018-09-25T02:05:26.884Z,75.50
2018-09-25T02:07:59.766Z,75.30
2018-09-25T02:10:32.835Z,74.90
2018-09-25T02:13:05.876Z,74.80
2018-09-25T02:15:38.823Z,74.50
2018-09-25T02:18:11.823Z,74.30
2018-09-25T02:20:44.655Z,74.20
2018-09-25T02:23:17.867Z,74.30
2018-09-25T02:25:50.860Z,74.20
2018-09-25T02:28:23.761Z,74.20
2018-09-25T02:30:56.751Z,74.30
2018-09-25T02:33:29.711Z,74.40
2018-09-25T02:36:02.625Z,74.50
2018-09-25T02:38:35.587Z,74.80
2018-09-25T02:41:08.573Z,74.90
2018-09-25T02:43:41.461Z,75.30
2018-09-25T02:46:14.375Z,75.60
2018-09-25T02:48:47.324Z,76.40
2018-09-25T02:51:20.508Z,75.50
2018-09-25T02:53:53.516Z,75.00
2018-09-25T02:56:26.517Z,74.70
2018-09-25T02:58:59.483Z,74.70
2018-09-25T03:01:32.471Z,75.90
2018-09-25T03:04:05.502Z,75.90
2018-09-25T03:06:38.449Z,76.00
2018-09-25T03:09:13.067Z,76.10
2018-09-25T03:11:46.478Z,76.00
2018-09-25T03:14:19.738Z,76.20
2018-09-25T03:16:52.668Z,76.10
2018-09-25T03:19:26.201Z,76.10
2018-09-25T03:21:59.203Z,76.10
2018-09-25T03:24:32.139Z,76.20
2018-09-25T03:27:05.115Z,76.20
2018-09-25T03:29:38.035Z,76.10
2018-09-25T03:32:11.064Z,76.20
2018-09-25T03:34:44.023Z,76.20
2018-09-25T03:37:16.903Z,76.10
2018-09-25T03:39:49.828Z,75.90
2018-09-25T03:42:22.710Z,76.00
2018-09-25T03:44:55.874Z,75.80
2018-09-25T03:47:28.905Z,75.60
2018-09-25T03:50:02.035Z,75.50
2018-09-25T03:52:35.136Z,75.50
2018-09-25T03:55:08.123Z,75.70
2018-09-25T03:57:41.040Z,75.50
2018-09-25T04:00:13.969Z,75.70
2018-09-25T04:02:47.095Z,75.50
2018-09-25T04:05:19.988Z,75.40
2018-09-25T04:07:53.007Z,75.40
2018-09-25T04:10:25.957Z,75.50
2018-09-25T04:12:58.958Z,75.30
2018-09-25T04:15:32.141Z,75.30
2018-09-25T04:18:05.267Z,75.20
2018-09-25T04:20:38.515Z,75.10
2018-09-25T04:23:11.382Z,75.00
2018-09-25T04:25:44.594Z,75.00
2018-09-25T04:28:18.030Z,74.90
2018-09-25T04:30:51.379Z,74.80
2018-09-25T04:33:24.519Z,74.90
2018-09-25T04:35:57.655Z,74.70
2018-09-25T04:38:30.622Z,74.80
2018-09-25T04:41:03.555Z,74.90
2018-09-25T04:43:36.532Z,74.80
2018-09-25T04:46:09.535Z,74.70
2018-09-25T04:48:42.487Z,74.60
2018-09-25T04:51:15.488Z,74.60
2018-09-25T04:53:48.394Z,74.60
2018-09-25T04:56:21.387Z,74.70
2018-09-25T04:58:54.279Z,74.70
2018-09-25T05:01:27.399Z,74.70
2018-09-25T05:04:00.343Z,74.60
2018-09-25T05:06:33.402Z,74.50
2018-09-25T05:09:06.452Z,74.40
2018-09-25T05:11:39.475Z,74.50
2018-09-25T05:14:12.519Z,74.40
2018-09-25T05:16:45.428Z,74.40
2018-09-25T05:19:18.427Z,74.50
2018-09-25T05:21:51.436Z,74.40
2018-09-25T05:24:24.434Z,74.50
2018-09-25T05:26:57.287Z,74.50
2018-09-25T05:29:30.191Z,74.50
2018-09-25T05:32:03.175Z,74.60
2018-09-25T05:34:36.086Z,74.60
2018-09-25T05:37:09.050Z,74.70
2018-09-25T05:39:42.033Z,75.50
2018-09-25T05:42:15.028Z,74.90
2018-09-25T05:44:48.003Z,75.00
2018-09-25T05:47:21.175Z,75.00
2018-09-25T05:49:54.134Z,75.10
2018-09-25T05:52:27.006Z,75.40
2018-09-25T05:54:59.955Z,76.30
2018-09-25T05:57:33.131Z,76.70
2018-09-25T06:00:06.259Z,77.50
2018-09-25T06:02:39.215Z,78.20
2018-09-25T06:05:12.504Z,78.80
2018-09-25T06:07:45.437Z,79.20
2018-09-25T06:10:18.396Z,79.60
2018-09-25T06:12:51.370Z,79.60
2018-09-25T06:15:24.369Z,79.50
2018-09-25T06:17:57.384Z,78.90
2018-09-25T06:20:30.616Z,78.50
2018-09-25T06:23:03.636Z,78.30
2018-09-25T06:25:36.583Z,78.00
2018-09-25T06:28:09.607Z,78.00
2018-09-25T06:30:42.585Z,78.10
2018-09-25T06:33:15.763Z,78.10
2018-09-25T06:35:48.669Z,78.30
2018-09-25T06:38:21.641Z,78.50
2018-09-25T06:40:54.658Z,78.70
2018-09-25T06:43:27.699Z,79.10
2018-09-25T06:46:00.650Z,79.50
2018-09-25T06:48:33.636Z,79.80
2018-09-25T06:51:06.564Z,80.00
2018-09-25T06:53:39.847Z,80.30
2018-09-25T06:56:13.069Z,80.50
2018-09-25T07:01:18.967Z,80.20
2018-09-25T07:03:52.210Z,81.10
2018-09-25T07:06:25.167Z,81.40
2018-09-25T07:08:58.091Z,81.60
2018-09-25T07:11:31.075Z,80.70
2018-09-25T07:14:04.567Z,80.70
2018-09-25T07:16:37.579Z,80.80
2018-09-25T07:19:10.562Z,80.80
2018-09-25T07:21:43.687Z,80.70
2018-09-25T07:24:16.644Z,80.50
2018-09-25T07:26:49.576Z,80.80
2018-09-25T07:29:22.579Z,81.10
2018-09-25T07:31:55.655Z,81.30
2018-09-25T07:34:28.850Z,81.70
2018-09-25T07:37:01.972Z,81.90
2018-09-25T07:39:34.933Z,82.40
2018-09-25T07:42:07.941Z,82.80
2018-09-25T07:44:40.824Z,83.20
2018-09-25T07:47:13.771Z,83.20
2018-09-25T07:49:46.701Z,83.40
2018-09-25T07:52:19.824Z,83.50
2018-09-25T07:54:52.815Z,83.50
2018-09-25T07:57:25.763Z,83.30
2018-09-25T07:59:59.135Z,83.20
2018-09-25T08:02:32.143Z,82.80
2018-09-25T08:05:05.096Z,82.80
2018-09-25T08:07:37.991Z,82.70
2018-09-25T08:10:10.960Z,82.60
2018-09-25T08:12:43.875Z,82.40
2018-09-25T08:15:16.910Z,82.30
2018-09-25T08:17:49.945Z,82.10
2018-09-25T08:20:22.824Z,81.90
2018-09-25T08:22:56.405Z,81.70
2018-09-25T08:25:29.262Z,81.50
2018-09-25T08:28:02.420Z,81.60
2018-09-25T08:30:35.399Z,81.30
2018-09-25T08:33:08.393Z,81.10
2018-09-25T08:35:41.555Z,80.80
2018-09-25T08:38:14.564Z,80.80
2018-09-25T08:40:47.488Z,80.70
2018-09-25T08:43:20.440Z,80.60
2018-09-25T08:45:53.337Z,80.70
2018-09-25T08:48:26.270Z,80.30
2018-09-25T08:50:59.143Z,80.30
2018-09-25T08:53:32.020Z,79.60
2018-09-25T08:56:05.152Z,78.90
2018-09-25T08:58:38.088Z,78.80
2018-09-25T09:01:11.475Z,78.90
2018-09-25T09:03:44.359Z,78.20
2018-09-25T09:06:17.391Z,78.20
2018-09-25T09:08:50.335Z,78.30
2018-09-25T09:11:23.692Z,77.60
2018-09-25T09:13:56.663Z,77.10
2018-09-25T09:16:29.594Z,76.80
2018-09-25T09:19:02.577Z,72.00
2018-09-25T09:21:35.476Z,70.20
2018-09-25T09:24:08.681Z,71.60
2018-09-25T09:26:41.687Z,73.00
2018-09-25T09:29:14.612Z,74.10
2018-09-25T09:31:47.627Z,74.30
2018-09-25T09:34:20.635Z,74.00
2018-09-25T09:36:53.673Z,73.90
2018-09-25T09:39:26.663Z,71.10
2018-09-25T09:41:59.772Z,70.60
2018-09-25T09:44:32.527Z,71.00
2018-09-25T09:47:05.412Z,71.10
2018-09-25T09:49:38.359Z,71.40
2018-09-25T09:52:11.381Z,70.00
2018-09-25T09:54:44.396Z,69.70
2018-09-25T09:57:17.354Z,70.00
2018-09-25T09:59:50.228Z,68.60
2018-09-25T10:02:23.187Z,68.40
2018-09-25T10:04:56.163Z,68.40
2018-09-25T10:07:29.131Z,67.80
2018-09-25T10:10:02.292Z,66.80
2018-09-25T10:12:35.314Z,66.80
2018-09-25T10:15:08.296Z,67.00
2018-09-25T10:17:41.259Z,66.10
2018-09-25T10:20:14.335Z,66.30
2018-09-25T10:22:47.167Z,67.20
2018-09-25T10:25:20.149Z,67.70
2018-09-25T10:27:53.107Z,67.90
2018-09-25T10:30:26.203Z,67.00
2018-09-25T10:32:59.128Z,67.00
2018-09-25T10:35:32.136Z,67.00
2018-09-25T10:38:05.031Z,65.80
2018-09-25T10:40:38.275Z,64.70
2018-09-25T10:43:11.429Z,63.40
2018-09-25T10:45:44.414Z,63.60
2018-09-25T10:48:17.389Z,62.40
2018-09-25T10:50:50.338Z,62.70
2018-09-25T10:53:23.302Z,64.00
2018-09-25T10:55:56.350Z,64.50
2018-09-25T10:58:29.183Z,59.70
2018-09-25T11:01:02.135Z,59.90
2018-09-25T11:03:35.299Z,58.50
2018-09-25T11:06:08.270Z,58.00
2018-09-25T11:08:41.209Z,58.20
2018-09-25T11:11:14.114Z,59.70
2018-09-25T11:13:47.028Z,61.10
2018-09-25T11:16:20.056Z,60.80
2018-09-25T11:18:52.993Z,59.40
2018-09-25T11:21:25.882Z,60.10
2018-09-25T11:23:58.889Z,61.50
2018-09-25T11:26:31.787Z,60.30
2018-09-25T11:29:04.800Z,60.80
2018-09-25T11:31:37.643Z,61.20
2018-09-25T11:34:10.786Z,60.80
2018-09-25T11:36:43.749Z,60.00
2018-09-25T11:39:16.691Z,60.40
2018-09-25T11:41:49.682Z,58.20
2018-09-25T11:44:22.892Z,57.40
2018-09-25T11:46:55.922Z,57.20
2018-09-25T11:49:29.060Z,56.50
2018-09-25T11:52:02.163Z,55.30
2018-09-25T11:54:35.154Z,55.80
2018-09-25T11:57:08.071Z,57.50
2018-09-25T11:59:40.962Z,58.60
2018-09-25T12:02:14.229Z,56.60
2018-09-25T12:04:47.120Z,58.10
2018-09-25T12:07:20.095Z,57.60
2018-09-25T12:09:53.100Z,53.20
2018-09-25T12:12:26.069Z,52.30
2018-09-25T12:14:59.240Z,54.60
2018-09-25T12:17:32.278Z,53.30
2018-09-25T12:20:05.168Z,54.80
2018-09-25T12:22:38.115Z,55.50
2018-09-25T12:25:11.035Z,56.40
2018-09-25T12:27:44.099Z,57.20
2018-09-25T12:30:17.022Z,56.50
2018-09-25T12:32:50.255Z,58.10
2018-09-25T12:35:23.234Z,58.60
2018-09-25T12:37:56.211Z,57.00
2018-09-25T12:40:29.196Z,56.50
2018-09-25T12:43:02.496Z,56.70
2018-09-25T12:45:35.645Z,57.10
2018-09-25T12:48:08.536Z,55.60
2018-09-25T12:50:41.455Z,55.10
2018-09-25T12:53:14.583Z,55.30
2018-09-25T12:55:47.595Z,55.20
2018-09-25T12:58:20.623Z,55.90
2018-09-25T13:00:53.611Z,55.00
2018-09-25T13:03:26.595Z,55.30
2018-09-25T13:05:59.630Z,54.30
2018-09-25T13:08:32.585Z,54.10
2018-09-25T13:11:05.451Z,53.80
2018-09-25T13:13:38.464Z,54.00
2018-09-25T13:16:12.079Z,53.80
2018-09-25T13:18:45.020Z,52.90
2018-09-25T13:21:18.295Z,52.60
2018-09-25T13:23:51.550Z,51.70
2018-09-25T13:26:24.547Z,52.40
2018-09-25T13:28:57.407Z,53.10
2018-09-25T13:31:30.352Z,53.00
2018-09-25T13:34:03.335Z,53.50
2018-09-25T13:36:36.303Z,53.00
2018-09-25T13:39:11.656Z,54.20
2018-09-25T13:41:44.772Z,52.90
2018-09-25T13:44:17.853Z,50.20
2018-09-25T13:46:50.764Z,51.20
2018-09-25T13:49:23.672Z,51.20
2018-09-25T13:51:56.630Z,51.70
2018-09-25T13:54:29.800Z,51.90
2018-09-25T13:57:02.815Z,51.60
2018-09-25T13:59:35.652Z,50.80
2018-09-25T14:02:08.673Z,51.30
2018-09-25T14:04:41.680Z,51.30
2018-09-25T14:07:14.654Z,51.30
2018-09-25T14:09:47.666Z,51.10
2018-09-25T14:12:20.572Z,52.20
2018-09-25T14:14:53.779Z,52.10
2018-09-25T14:17:26.995Z,51.50
2018-09-25T14:19:59.995Z,50.60
2018-09-25T14:22:33.187Z,51.40
2018-09-25T14:25:06.456Z,50.10
2018-09-25T14:27:39.437Z,49.60
2018-09-25T14:30:12.419Z,50.60
2018-09-25T14:32:45.463Z,51.90
2018-09-25T14:35:18.404Z,51.60
2018-09-25T14:37:51.691Z,52.00
2018-09-25T14:40:24.853Z,51.70
2018-09-25T14:42:58.084Z,51.80
2018-09-25T14:45:31.021Z,51.00
2018-09-25T14:48:04.227Z,50.70
2018-09-25T14:50:37.151Z,50.00
2018-09-25T14:53:10.303Z,50.10
2018-09-25T14:55:43.236Z,49.90
2018-09-25T14:58:16.259Z,50.20
2018-09-25T15:00:49.209Z,50.30
2018-09-25T15:03:22.172Z,51.20
2018-09-25T15:05:55.115Z,51.20
2018-09-25T15:08:28.023Z,51.40
2018-09-25T15:11:00.938Z,51.80
2018-09-25T15:13:33.944Z,51.70
2018-09-25T15:16:07.002Z,52.20
2018-09-25T15:18:39.920Z,52.00
2018-09-25T15:21:13.169Z,52.00
2018-09-25T15:23:46.159Z,52.20
2018-09-25T15:26:19.173Z,52.00
2018-09-25T15:28:52.168Z,52.50
2018-09-25T15:31:25.128Z,52.50
2018-09-25T15:33:58.099Z,52.40
2018-09-25T15:36:31.129Z,52.70
2018-09-25T15:39:04.344Z,53.00
2018-09-25T15:41:37.385Z,53.60
2018-09-25T15:44:10.213Z,53.40
2018-09-25T15:46:43.319Z,53.40
2018-09-25T15:49:16.370Z,53.20
2018-09-25T15:51:49.265Z,53.20
2018-09-25T15:54:22.241Z,53.10
2018-09-25T15:56:55.178Z,52.90
2018-09-25T15:59:28.284Z,53.20
2018-09-25T16:02:01.280Z,53.10
2018-09-25T16:04:34.300Z,53.10
2018-09-25T16:07:07.271Z,53.30
2018-09-25T16:09:40.203Z,53.20
2018-09-25T16:12:13.129Z,53.00
2018-09-25T16:14:46.044Z,53.00
2018-09-25T16:17:18.948Z,52.50
2018-09-25T16:19:51.837Z,52.70
2018-09-25T16:22:24.779Z,52.70
2018-09-25T16:24:57.710Z,53.00
2018-09-25T16:27:30.655Z,52.90
2018-09-25T16:30:03.621Z,52.40
2018-09-25T16:32:36.650Z,52.70
2018-09-25T16:35:09.716Z,52.10
2018-09-25T16:37:42.655Z,52.50
2018-09-25T16:40:15.578Z,53.30
2018-09-25T16:42:48.595Z,52.30
2018-09-25T16:45:21.738Z,51.30
2018-09-25T16:47:54.739Z,51.90
2018-09-25T16:50:27.743Z,51.30
2018-09-25T16:53:00.781Z,52.30
2018-09-25T16:55:33.980Z,52.60
2018-09-25T16:58:06.912Z,53.00
2018-09-25T17:00:39.861Z,53.00
2018-09-25T17:03:12.775Z,53.10
2018-09-25T17:05:45.695Z,53.40
2018-09-25T17:08:18.671Z,53.70
2018-09-25T17:10:51.540Z,53.60
2018-09-25T17:13:24.541Z,53.60
2018-09-25T17:15:57.492Z,53.90
2018-09-25T17:18:30.445Z,54.00
2018-09-25T17:21:03.455Z,54.30
2018-09-25T17:23:36.432Z,54.50
2018-09-25T17:26:09.428Z,54.70
2018-09-25T17:28:42.402Z,54.70
2018-09-25T17:31:15.353Z,54.90
2018-09-25T17:33:48.376Z,55.10
2018-09-25T17:36:21.324Z,55.30
2018-09-25T17:38:54.255Z,55.40
2018-09-25T17:41:27.256Z,55.60
2018-09-25T17:44:00.171Z,55.80
2018-09-25T17:46:33.187Z,56.00
2018-09-25T17:49:06.131Z,56.30
2018-09-25T17:51:39.196Z,56.50
2018-09-25T17:54:12.371Z,56.70
2018-09-25T17:56:45.275Z,57.00
2018-09-25T17:59:18.223Z,57.20
2018-09-25T18:01:51.277Z,57.40
2018-09-25T18:04:24.588Z,57.60
2018-09-25T18:06:57.546Z,57.80
2018-09-25T18:09:30.572Z,58.00
2018-09-25T18:12:03.490Z,58.20
2018-09-25T18:14:36.792Z,58.30
2018-09-25T18:17:09.739Z,58.50
2018-09-25T18:19:42.907Z,58.70
2018-09-25T18:22:16.099Z,58.80
2018-09-25T18:24:49.252Z,59.10
2018-09-25T18:27:22.217Z,59.20
2018-09-25T18:29:55.415Z,59.40
2018-09-25T18:32:28.392Z,59.50
2018-09-25T18:35:01.297Z,59.60
2018-09-25T18:37:34.288Z,59.70
2018-09-25T18:40:07.774Z,59.80
2018-09-25T18:42:40.691Z,60.00
2018-09-25T18:45:13.668Z,60.10
2018-09-25T18:47:46.848Z,60.70
2018-09-25T18:50:19.778Z,60.50
2018-09-25T18:52:52.975Z,60.70
2018-09-25T18:55:26.212Z,60.70
2018-09-25T18:57:59.388Z,60.80
2018-09-25T19:00:32.293Z,60.80
2018-09-25T19:03:05.273Z,60.80
2018-09-25T19:05:38.524Z,60.80
2018-09-25T19:08:11.395Z,61.10
2018-09-25T19:10:44.632Z,61.10
2018-09-25T19:13:17.616Z,61.20
2018-09-25T19:15:50.564Z,61.30
2018-09-25T19:18:23.613Z,61.40
2018-09-25T19:20:56.600Z,61.70
2018-09-25T19:23:29.511Z,61.70
2018-09-25T19:26:02.460Z,61.70
2018-09-25T19:28:35.368Z,61.80
2018-09-25T19:31:08.314Z,61.90
2018-09-25T19:33:41.452Z,62.10
2018-09-25T19:36:14.376Z,62.10
2018-09-25T19:38:47.382Z,62.30
2018-09-25T19:41:20.289Z,62.50
2018-09-25T19:43:53.269Z,62.50
2018-09-25T19:46:26.496Z,62.50
2018-09-25T19:48:59.627Z,62.60
2018-09-25T19:51:32.615Z,62.80
2018-09-25T19:54:05.644Z,62.90
2018-09-25T19:56:38.608Z,62.90
2018-09-25T19:59:11.597Z,63.00
2018-09-25T20:01:44.560Z,63.10
2018-09-25T20:04:17.641Z,63.20
2018-09-25T20:06:50.813Z,63.40
2018-09-25T20:09:23.990Z,63.40
2018-09-25T20:11:57.175Z,63.60
2018-09-25T20:14:30.249Z,63.70
2018-09-25T20:17:03.225Z,63.70
2018-09-25T20:19:36.270Z,63.70
2018-09-25T20:22:11.715Z,63.70
2018-09-25T20:24:44.719Z,63.70
2018-09-25T20:27:17.697Z,63.70
2018-09-25T20:29:50.608Z,63.60
2018-09-25T20:32:23.713Z,63.70
2018-09-25T20:34:56.779Z,63.70
2018-09-25T20:37:29.952Z,63.80
2018-09-25T20:40:03.096Z,63.80
2018-09-25T20:42:36.053Z,63.90
2018-09-25T20:45:09.179Z,64.00
2018-09-25T20:47:42.108Z,64.00
2018-09-25T20:50:15.380Z,64.30
2018-09-25T20:52:48.332Z,64.20
2018-09-25T20:55:21.391Z,64.20
2018-09-25T20:57:54.467Z,65.30
2018-09-25T21:00:27.540Z,64.80
2018-09-25T21:03:00.480Z,65.10
2018-09-25T21:05:33.336Z,65.30
2018-09-25T21:08:06.256Z,65.80
2018-09-25T21:10:39.218Z,66.10
2018-09-25T21:13:12.189Z,66.50
2018-09-25T21:15:45.265Z,66.30
2018-09-25T21:18:18.360Z,66.30
2018-09-25T21:20:51.357Z,66.30
2018-09-25T21:23:24.477Z,66.10
2018-09-25T21:25:57.994Z,66.10
2018-09-25T21:28:31.857Z,66.00
2018-09-25T21:31:05.124Z,65.80
2018-09-25T21:33:38.345Z,65.80
2018-09-25T21:36:11.856Z,65.90
2018-09-25T21:38:45.066Z,65.90
2018-09-25T21:41:19.490Z,65.80
2018-09-25T21:43:52.704Z,65.80
2018-09-25T21:46:25.920Z,65.80
2018-09-25T21:48:59.187Z,65.70
2018-09-25T21:51:32.385Z,65.70
2018-09-25T21:54:05.029Z,65.90
2018-09-25T21:56:38.082Z,65.80
2018-09-25T21:59:11.372Z,66.00
2018-09-25T22:01:44.244Z,66.00
2018-09-25T22:04:17.244Z,66.10
2018-09-25T22:06:50.313Z,66.30
2018-09-25T22:09:23.320Z,66.60
2018-09-25T22:11:56.345Z,66.50
2018-09-25T22:14:29.367Z,66.50
2018-09-25T22:17:02.319Z,66.70
2018-09-25T22:19:35.371Z,66.60
2018-09-25T22:22:08.552Z,66.70
2018-09-25T22:27:22.328Z,66.90
2018-09-25T22:29:55.423Z,67.10
2018-09-25T22:32:31.936Z,67.10
2018-09-25T22:35:04.921Z,67.10
2018-09-25T22:37:37.865Z,67.10
2018-09-25T22:40:11.075Z,67.10
2018-09-25T22:42:44.105Z,68.20
2018-09-25T22:45:17.027Z,68.30
2018-09-25T22:47:49.954Z,68.20
2018-09-25T22:50:22.884Z,68.20
2018-09-25T22:52:56.033Z,68.20
2018-09-25T22:55:29.567Z,68.10
2018-09-25T22:58:02.743Z,68.10
2018-09-25T23:00:35.759Z,68.20
2018-09-25T23:03:09.013Z,68.30
2018-09-25T23:05:42.372Z,68.20
2018-09-25T23:08:15.249Z,68.20
2018-09-25T23:10:48.708Z,68.20
2018-09-25T23:13:21.734Z,68.20
2018-09-25T23:15:54.644Z,68.50
2018-09-25T23:18:27.571Z,68.50
2018-09-25T23:21:00.582Z,68.60
2018-09-25T23:23:33.743Z,68.60
2018-09-25T23:26:06.648Z,68.80
2018-09-25T23:28:39.595Z,68.90
2018-09-25T23:31:12.636Z,68.80
2018-09-25T23:33:45.654Z,68.60
2018-09-25T23:43:28.036Z,68.60
2018-09-25T23:46:00.961Z,68.70
2018-09-25T23:48:36.810Z,68.90
2018-09-25T23:51:09.567Z,69.00
2018-09-25T23:53:47.485Z,69.10
2018-09-25T23:56:48.825Z,69.10
2018-09-25T23:59:23.794Z,69.80
